Time;durP1;ratioP1;P1;durP2;ratioP2;P2;SDS_P1;SDS_P2;PMS_P1;PMS_P2;Temp;Humidity;BMP_temperature;BMP_pressure;BME280_temperature;BME280_humidity;BME280_pressure;Samples;Min_cycle;Max_cycle;Signal;HPM_P1;HPM_P2
2022/01/18 00:01:35;;;;;;;1.57;1.03;;;;;;;-7.05;71.54;99709.50;5053031;28;20094;-84
2022/01/18 00:04:01;;;;;;;0.85;0.85;;;;;;;-7.05;71.23;99709.50;5051588;28;20033;-84
2022/01/18 00:06:27;;;;;;;2.40;1.13;;;;;;;-7.06;71.90;99720.38;5046974;28;20033;-84
2022/01/18 00:08:53;;;;;;;2.53;1.00;;;;;;;-7.09;71.75;99729.56;5059816;28;20041;-84
2022/01/18 00:11:21;;;;;;;1.35;0.90;;;;;;;-7.08;71.45;99739.22;5048464;28;20041;-86
2022/01/18 00:13:56;;;;;;;1.45;0.85;;;;;;;-7.09;71.40;99734.91;5051751;28;20045;-87
2022/01/18 00:16:31;;;;;;;1.23;0.98;;;;;;;-7.11;71.54;99739.59;5052195;28;20560;-84
2022/01/18 00:19:01;;;;;;;2.92;0.90;;;;;;;-7.11;72.12;99749.44;5068913;28;20060;-85
2022/01/18 00:21:37;;;;;;;1.13;0.88;;;;;;;-7.13;72.15;99757.59;5052086;28;20041;-84
2022/01/18 00:24:03;;;;;;;1.60;1.00;;;;;;;-7.13;71.53;99770.09;5035401;28;20041;-85
2022/01/18 00:26:31;;;;;;;1.15;0.90;;;;;;;-7.16;71.63;99765.97;5051188;28;20039;-84
2022/01/18 00:29:03;;;;;;;1.48;0.98;;;;;;;-7.17;72.16;99776.84;5051291;28;20148;-84
2022/01/18 00:31:50;;;;;;;1.98;0.90;;;;;;;-7.19;71.79;99793.03;5018488;28;20068;-84
2022/01/18 00:34:25;;;;;;;1.80;0.80;;;;;;;-7.21;72.17;99796.91;5052509;28;20033;-85
2022/01/18 00:39:16;;;;;;;2.35;0.88;;;;;;;-7.22;72.32;99806.72;5031421;28;20037;-85
2022/01/18 00:41:41;;;;;;;1.10;1.00;;;;;;;-7.22;71.93;99805.91;5052485;28;20048;-85
2022/01/18 00:44:08;;;;;;;1.00;0.90;;;;;;;-7.24;72.23;99816.75;5052417;28;20127;-85
2022/01/18 00:46:34;;;;;;;1.38;1.10;;;;;;;-7.25;71.55;99817.78;5051205;28;20043;-86
2022/01/18 00:49:01;;;;;;;0.75;0.68;;;;;;;-7.26;71.93;99839.28;5032927;28;20037;-85
2022/01/18 00:51:28;;;;;;;1.08;0.85;;;;;;;-7.26;71.67;99842.78;5049442;28;20040;-83
2022/01/18 00:53:57;;;;;;;2.47;0.80;;;;;;;-7.26;71.86;99845.44;5012406;28;20061;-83
2022/01/18 00:56:26;;;;;;;0.98;0.85;;;;;;;-7.26;71.52;99857.94;5048422;28;20106;-84
2022/01/18 00:58:52;;;;;;;0.93;0.60;;;;;;;-7.28;72.48;99863.44;5030280;28;20094;-84
2022/01/18 01:01:19;;;;;;;1.52;0.95;;;;;;;-7.30;71.70;99865.44;5052092;28;20106;-84
2022/01/18 01:03:45;;;;;;;2.42;1.23;;;;;;;-7.31;72.28;99879.78;5052715;28;20043;-85
2022/01/18 01:06:11;;;;;;;1.13;0.90;;;;;;;-7.32;72.12;99886.13;5051103;28;20036;-83
2022/01/18 01:08:37;;;;;;;3.80;0.90;;;;;;;-7.32;72.03;99894.13;5052617;28;20048;-83
2022/01/18 01:11:04;;;;;;;0.85;0.80;;;;;;;-7.32;72.24;99888.78;5052031;28;20036;-83
2022/01/18 01:13:30;;;;;;;0.90;0.70;;;;;;;-7.33;71.78;99892.47;5051778;28;20114;-82
2022/01/18 01:35:16;;;;;;;0.85;0.60;;;;;;;-7.41;71.66;99937.88;5053179;28;20516;-85
2022/01/18 01:43:19;;;;;;;1.50;1.08;;;;;;;-7.43;72.12;99962.03;5051177;28;20087;-85
2022/01/18 01:45:45;;;;;;;1.23;0.90;;;;;;;-7.45;72.07;99964.06;5053728;28;20033;-85
2022/01/18 01:48:11;;;;;;;3.83;1.10;;;;;;;-7.46;71.90;99972.22;5018018;28;20029;-83
2022/01/18 01:50:50;;;;;;;2.15;1.00;;;;;;;-7.45;71.58;99973.91;5050404;28;20091;-82
2022/01/18 01:53:18;;;;;;;1.27;0.77;;;;;;;-7.47;72.01;99982.03;5051265;28;20044;-85
2022/01/18 01:55:47;;;;;;;2.33;0.90;;;;;;;-7.49;71.57;99996.56;5048887;28;20041;-85
2022/01/18 01:58:12;;;;;;;2.17;0.90;;;;;;;-7.51;71.32;99998.59;5053137;28;20035;-86
2022/01/18 02:00:48;;;;;;;0.77;0.70;;;;;;;-7.51;71.31;100012.72;5052727;28;20132;-84
2022/01/18 02:03:14;;;;;;;1.85;0.82;;;;;;;-7.54;71.42;100025.59;5018463;28;20080;-85
2022/01/18 02:05:40;;;;;;;2.42;0.98;;;;;;;-7.55;71.33;100043.41;5054034;28;20045;-87
2022/01/18 02:08:07;;;;;;;1.88;0.90;;;;;;;-7.57;71.45;100044.59;5073652;28;20048;-86
2022/01/18 02:10:36;;;;;;;1.02;0.80;;;;;;;-7.59;71.35;100052.78;5055084;28;20040;-87
2022/01/18 02:13:03;;;;;;;1.02;0.73;;;;;;;-7.61;71.17;100065.44;5039254;28;20079;-86
2022/01/18 02:15:29;;;;;;;1.52;1.00;;;;;;;-7.64;71.81;100069.25;5057283;28;20045;-87
2022/01/18 02:23:26;;;;;;;1.98;0.98;;;;;;;-7.69;70.91;100084.13;5017163;28;20054;-86
2022/01/18 02:25:52;;;;;;;3.08;1.17;;;;;;;-7.73;71.81;100091.66;5011566;28;20042;-84
2022/01/18 02:28:19;;;;;;;2.10;1.10;;;;;;;-7.73;71.52;100104.97;5012032;28;20042;-86
2022/01/18 02:30:45;;;;;;;1.45;1.13;;;;;;;-7.74;71.02;100108.63;5011616;28;20061;-85
2022/01/18 02:33:12;;;;;;;2.35;1.10;;;;;;;-7.76;71.51;100113.31;5014245;28;20102;-85
2022/01/18 02:35:38;;;;;;;2.33;1.17;;;;;;;-7.78;71.36;100109.19;5019525;28;20042;-85
2022/01/18 02:38:04;;;;;;;1.83;1.25;;;;;;;-7.77;71.03;100109.00;5030327;28;20096;-84
2022/01/18 02:40:30;;;;;;;2.42;1.00;;;;;;;-7.77;71.29;100109.00;5013092;28;20044;-84
2022/01/18 02:43:46;;;;;;;3.53;1.10;;;;;;;-7.78;70.42;100107.34;5015278;28;20487;-84
2022/01/18 02:45:48;;;;;;;2.45;0.98;;;;;;;-7.83;71.24;100120.34;5027937;28;20061;-84
2022/01/18 02:48:14;;;;;;;2.13;1.08;;;;;;;-7.82;70.88;100119.31;5013682;28;20425;-84
2022/01/18 02:50:40;;;;;;;1.20;1.00;;;;;;;-7.82;71.42;100140.63;5011294;28;20033;-83
2022/01/18 02:53:06;;;;;;;2.58;1.35;;;;;;;-7.84;70.83;100155.97;5011954;28;20040;-84
2022/01/18 02:55:31;;;;;;;2.35;1.00;;;;;;;-7.85;71.09;100164.94;5042646;28;20046;-84
2022/01/18 02:58:03;;;;;;;2.05;0.80;;;;;;;-7.85;70.68;100174.78;5011721;28;20033;-83
2022/01/18 03:00:43;;;;;;;1.05;0.88;;;;;;;-7.88;70.76;100170.63;5010562;28;20034;-86
2022/01/18 03:05:37;;;;;;;2.20;1.17;;;;;;;-7.88;70.30;100169.81;5026980;28;20049;-82
2022/01/18 03:08:03;;;;;;;4.07;1.20;;;;;;;-7.90;70.94;100186.78;5010884;28;20297;-85
2022/01/18 03:10:29;;;;;;;5.47;1.13;;;;;;;-7.90;70.25;100186.78;5008624;28;20129;-86
2022/01/18 03:12:54;;;;;;;2.92;1.10;;;;;;;-7.90;70.39;100184.13;5010681;28;20065;-85
2022/01/18 03:15:20;;;;;;;1.33;0.90;;;;;;;-7.89;70.02;100184.94;5009465;28;20129;-83
2022/01/18 03:17:45;;;;;;;1.65;1.10;;;;;;;-7.90;70.02;100204.59;5009071;28;20038;-83
2022/01/18 03:20:13;;;;;;;2.45;1.15;;;;;;;-7.88;70.73;100213.22;5012178;28;20095;-85
2022/01/18 03:22:39;;;;;;;1.83;1.17;;;;;;;-7.90;70.74;100215.25;5032754;28;20051;-85
2022/01/18 03:28:05;;;;;;;2.60;1.20;;;;;;;-7.93;69.94;100229.75;5052754;28;20041;-85
2022/01/18 03:30:36;;;;;;;2.80;0.90;;;;;;;-7.93;70.22;100237.72;5053368;28;20132;-84
2022/01/18 03:33:03;;;;;;;3.45;1.25;;;;;;;-7.91;70.26;100234.88;5050129;28;20407;-83
2022/01/18 03:35:28;;;;;;;1.98;1.10;;;;;;;-7.91;70.09;100237.56;5049726;28;20056;-83
2022/01/18 03:37:54;;;;;;;1.63;1.00;;;;;;;-7.93;69.69;100239.56;5014725;28;20128;-83
2022/01/18 03:40:20;;;;;;;1.45;1.10;;;;;;;-7.93;70.18;100239.56;5056582;28;20069;-86
2022/01/18 03:42:46;;;;;;;2.20;1.00;;;;;;;-7.93;70.52;100248.38;5056717;28;20033;-86
2022/01/18 03:45:28;;;;;;;1.33;0.90;;;;;;;-7.94;69.88;100248.53;5056477;28;20033;-86
2022/01/18 03:47:56;;;;;;;1.67;1.20;;;;;;;-7.96;69.90;100250.56;5055035;28;20041;-85
2022/01/18 03:50:22;;;;;;;1.23;0.90;;;;;;;-7.98;69.98;100258.72;5053198;28;20045;-85
2022/01/18 03:52:48;;;;;;;1.25;0.80;;;;;;;-7.98;70.26;100260.56;5055835;28;20041;-87
2022/01/18 03:55:16;;;;;;;1.42;0.90;;;;;;;-8.02;70.35;100259.19;5055038;28;20110;-85
2022/01/18 03:57:41;;;;;;;1.35;0.90;;;;;;;-8.02;70.17;100269.84;5054168;28;20037;-86
2022/01/18 04:00:13;;;;;;;2.08;1.10;;;;;;;-8.01;70.63;100276.84;5058028;28;20384;-86
2022/01/18 04:02:39;;;;;;;3.20;1.17;;;;;;;-8.02;71.10;100280.50;5070486;28;20136;-87
2022/01/18 04:05:05;;;;;;;1.83;1.30;;;;;;;-8.05;70.96;100284.34;5036725;28;20068;-87
2022/01/18 04:07:31;;;;;;;4.10;1.50;;;;;;;-8.04;71.09;100283.34;5053347;28;20036;-86
2022/01/18 04:09:56;;;;;;;1.60;1.10;;;;;;;-8.02;70.67;100283.16;5053347;28;20060;-86
2022/01/18 04:12:22;;;;;;;3.30;1.38;;;;;;;-8.05;70.75;100296.81;5053304;28;20041;-85
2022/01/18 04:14:47;;;;;;;2.45;1.25;;;;;;;-8.04;71.27;100309.97;5053350;28;20037;-85
2022/01/18 04:27:49;;;;;;;2.05;1.30;;;;;;;-8.07;71.62;100333.44;5012781;28;20049;-84
2022/01/18 04:30:14;;;;;;;1.75;1.20;;;;;;;-8.07;72.15;100325.44;5013194;28;20048;-83
2022/01/18 04:32:40;;;;;;;3.35;1.45;;;;;;;-8.05;72.13;100329.59;5018268;28;20046;-84
2022/01/18 04:35:06;;;;;;;1.85;1.55;;;;;;;-8.05;72.11;100342.06;5023265;28;20040;-85
2022/01/18 04:37:32;;;;;;;4.40;1.63;;;;;;;-8.02;72.52;100345.22;5032234;28;20501;-85
2022/01/18 04:39:59;;;;;;;3.53;1.63;;;;;;;-8.00;72.10;100358.38;5030482;28;20136;-83
2022/01/18 04:42:47;;;;;;;1.42;1.30;;;;;;;-8.00;72.25;100353.03;5018460;28;20085;-84
2022/01/18 04:50:41;;;;;;;2.50;1.67;;;;;;;-7.95;72.76;100369.38;5046218;28;20045;-84
2022/01/18 04:53:06;;;;;;;2.90;1.60;;;;;;;-7.96;72.41;100365.03;5030733;28;20034;-84
2022/01/18 04:55:33;;;;;;;2.30;1.05;;;;;;;-7.96;72.68;100367.72;5028136;28;20045;-83
2022/01/18 04:57:58;;;;;;;2.45;1.25;;;;;;;-7.94;73.08;100373.69;5017615;28;20042;-83
2022/01/18 05:00:25;;;;;;;2.63;1.23;;;;;;;-7.95;72.72;100370.19;5003691;28;20045;-84
2022/01/18 05:02:51;;;;;;;3.22;1.52;;;;;;;-7.94;73.17;100384.34;5012176;28;20037;-84
2022/01/18 05:05:25;;;;;;;2.05;1.23;;;;;;;-7.95;72.66;100385.34;5013458;28;20037;-84
2022/01/18 05:07:54;;;;;;;2.20;1.60;;;;;;;-7.96;73.24;100394.34;5014714;28;20052;-84
2022/01/18 05:10:23;;;;;;;2.13;1.48;;;;;;;-7.97;73.54;100396.16;5012819;28;20034;-84
2022/01/18 05:12:53;;;;;;;1.95;1.17;;;;;;;-7.98;73.73;100407.00;5031819;28;20071;-84
2022/01/18 05:23:25;;;;;;;5.18;2.03;;;;;;;-7.98;73.96;100468.22;5028721;28;20064;-83
2022/01/18 05:25:50;;;;;;;2.47;1.60;;;;;;;-7.98;73.83;100479.72;5031291;28;20037;-80
2022/01/18 05:28:16;;;;;;;4.75;1.58;;;;;;;-8.00;73.66;100475.50;5034336;28;20046;-88
2022/01/18 05:30:42;;;;;;;3.95;1.65;;;;;;;-7.99;73.78;100488.66;5015539;28;20077;-88
2022/01/18 05:33:09;;;;;;;2.85;1.30;;;;;;;-8.02;74.38;100482.84;5032179;28;20041;-85
2022/01/18 05:35:35;;;;;;;2.97;1.30;;;;;;;-8.02;73.85;100485.50;5011466;28;20139;-84
2022/01/18 05:38:02;;;;;;;5.00;1.40;;;;;;;-8.04;73.89;100488.34;5004158;28;20095;-87
2022/01/18 05:40:28;;;;;;;3.83;1.60;;;;;;;-8.03;74.57;100487.34;5019110;28;20041;-86
2022/01/18 05:42:53;;;;;;;4.47;1.40;;;;;;;-8.05;74.16;100486.66;5017717;28;20532;-84
2022/01/18 05:45:20;;;;;;;1.63;1.05;;;;;;;-8.08;73.99;100481.69;5013988;28;20064;-86
2022/01/18 05:47:46;;;;;;;3.42;1.15;;;;;;;-8.06;74.10;100489.50;5017416;28;20041;-77
2022/01/18 05:50:12;;;;;;;4.25;1.70;;;;;;;-8.05;73.93;100499.16;5016945;28;20580;-88
2022/01/18 05:52:39;;;;;;;4.22;1.58;;;;;;;-8.04;74.81;100498.97;5033452;28;20081;-86
2022/01/18 05:55:06;;;;;;;4.35;1.30;;;;;;;-8.06;74.18;100508.97;5035160;28;20139;-86
2022/01/18 05:57:32;;;;;;;2.85;1.42;;;;;;;-8.07;74.32;100509.97;5035400;28;20132;-87
2022/01/18 06:00:01;;;;;;;3.17;1.50;;;;;;;-8.07;75.31;100511.78;5035793;28;20061;-86
2022/01/18 06:07:43;;;;;;;2.05;0.85;;;;;;;-8.07;75.07;100519.78;5033526;28;20052;-87
2022/01/18 06:10:08;;;;;;;1.73;1.20;;;;;;;-8.08;74.88;100526.09;5048673;28;20089;-87
2022/01/18 06:12:34;;;;;;;2.40;1.30;;;;;;;-8.07;75.15;100549.06;5067102;28;20186;-87
2022/01/18 06:15:00;;;;;;;1.30;1.10;;;;;;;-8.09;75.48;100562.53;5017124;28;20135;-87
2022/01/18 06:17:26;;;;;;;3.40;1.33;;;;;;;-8.07;75.23;100555.22;5015799;28;20125;-87
2022/01/18 06:19:51;;;;;;;2.55;1.48;;;;;;;-8.07;74.76;100571.19;5014247;28;20038;-86
2022/01/18 06:22:17;;;;;;;2.03;1.27;;;;;;;-8.08;75.27;100576.69;5029283;28;20096;-87
2022/01/18 06:24:42;;;;;;;1.17;1.08;;;;;;;-8.06;75.10;100588.00;5037440;28;20041;-86
2022/01/18 06:27:08;;;;;;;4.57;1.08;;;;;;;-8.07;74.91;100591.66;5049614;28;20065;-87
2022/01/18 06:29:34;;;;;;;2.30;1.10;;;;;;;-8.09;75.18;100598.97;5017343;28;20049;-87
2022/01/18 06:32:00;;;;;;;2.13;1.10;;;;;;;-8.08;75.64;100595.31;5034682;28;20053;-87
2022/01/18 06:34:26;;;;;;;3.88;1.35;;;;;;;-8.05;75.68;100600.31;5034479;28;20041;-87
2022/01/18 06:36:51;;;;;;;2.95;1.52;;;;;;;-8.04;75.59;100592.16;5050196;28;20044;-87
2022/01/18 06:39:17;;;;;;;2.47;1.27;;;;;;;-8.02;75.62;100600.00;5050111;28;20515;-88
2022/01/18 06:41:44;;;;;;;3.10;1.30;;;;;;;-8.01;76.13;100602.47;5034874;28;20516;-87
2022/01/18 06:44:09;;;;;;;4.85;1.25;;;;;;;-8.01;75.22;100609.63;5028055;28;20040;-87
2022/01/18 06:46:35;;;;;;;2.30;1.38;;;;;;;-8.02;76.13;100603.47;5036645;28;20044;-88
2022/01/18 06:49:01;;;;;;;2.35;1.50;;;;;;;-8.00;75.93;100593.50;5036706;28;20059;-87
2022/01/18 06:51:26;;;;;;;1.83;1.20;;;;;;;-7.98;75.41;100612.00;5055109;28;20044;-86
2022/01/18 06:53:52;;;;;;;2.28;1.20;;;;;;;-7.99;75.85;100627.13;5055255;28;20043;-87
2022/01/18 06:56:19;;;;;;;1.95;0.85;;;;;;;-8.00;75.31;100625.44;5035260;28;20045;-86
2022/01/18 06:58:45;;;;;;;1.00;0.88;;;;;;;-8.01;75.49;100636.25;5037703;28;20037;-88
2022/01/18 07:01:12;;;;;;;0.63;0.57;;;;;;;-8.00;75.73;100635.28;5037929;28;20079;-87
2022/01/18 07:03:38;;;;;;;3.28;1.35;;;;;;;-7.98;75.56;100649.28;5028373;28;20534;-88
2022/01/18 07:06:04;;;;;;;1.08;0.98;;;;;;;-7.97;76.04;100666.94;5049611;28;20049;-89
2022/01/18 07:08:30;;;;;;;1.25;0.70;;;;;;;-7.96;75.65;100669.44;5057598;28;20040;-90
2022/01/18 07:10:57;;;;;;;2.78;1.15;;;;;;;-7.93;76.74;100681.59;5054664;28;20041;-89
2022/01/18 07:13:23;;;;;;;0.88;0.70;;;;;;;-7.94;75.79;100693.22;5055222;28;20048;-89
2022/01/18 07:15:48;;;;;;;1.00;0.90;;;;;;;-7.93;75.70;100695.72;5058286;28;20040;-89
2022/01/18 07:18:14;;;;;;;1.23;0.77;;;;;;;-7.91;76.21;100692.91;5056698;28;20045;-90
2022/01/18 07:20:41;;;;;;;1.27;0.82;;;;;;;-7.92;76.28;100701.88;5038382;28;20048;-89
2022/01/18 07:23:13;;;;;;;1.17;0.80;;;;;;;-7.88;76.03;100697.06;5056072;28;20055;-89
2022/01/18 07:25:45;;;;;;;2.30;1.58;;;;;;;-7.88;76.19;100713.88;5056974;28;20105;-89
2022/01/18 07:28:13;;;;;;;3.17;2.33;;;;;;;-7.60;76.45;100718.00;5056631;28;20037;-89
2022/01/18 07:30:39;;;;;;;2.75;2.22;;;;;;;-6.93;75.39;100715.28;5040304;28;20041;-90
2022/01/18 07:33:06;;;;;;;4.18;2.15;;;;;;;-6.31;74.94;100720.06;5057122;28;20107;-88
2022/01/18 07:35:34;;;;;;;5.00;1.80;;;;;;;-5.82;74.07;100716.22;5056073;28;20083;-87
2022/01/18 07:38:01;;;;;;;2.33;1.35;;;;;;;-5.33;73.22;100723.19;5054113;28;20123;-89
2022/01/18 07:40:28;;;;;;;2.65;1.67;;;;;;;-4.84;72.34;100725.56;5037419;28;20083;-88
2022/01/18 07:42:54;;;;;;;2.30;1.35;;;;;;;-4.39;70.56;100721.97;5036589;28;20499;-88
2022/01/18 07:45:21;;;;;;;4.22;1.63;;;;;;;-4.10;69.00;100730.06;5036667;28;20044;-89
2022/01/18 07:47:47;;;;;;;3.72;1.27;;;;;;;-3.82;68.35;100730.25;5053490;28;20041;-91
2022/01/18 07:50:12;;;;;;;3.25;1.60;;;;;;;-3.51;67.01;100734.56;5053963;28;20143;-89
2022/01/18 07:52:38;;;;;;;3.17;1.60;;;;;;;-3.16;66.14;100738.28;5036378;28;20076;-87
2022/01/18 07:55:04;;;;;;;2.80;1.27;;;;;;;-2.84;64.66;100745.88;5053997;28;20147;-88
2022/01/18 07:57:30;;;;;;;2.72;1.40;;;;;;;-2.53;64.09;100750.09;5036473;28;20037;-89
2022/01/18 07:59:56;;;;;;;4.75;1.40;;;;;;;-2.23;63.05;100761.53;5053442;28;20483;-89
2022/01/18 08:02:22;;;;;;;4.88;1.60;;;;;;;-1.95;62.52;100764.19;5051957;28;20086;-87
2022/01/18 08:04:47;;;;;;;6.60;1.85;;;;;;;-1.72;61.23;100772.84;5053066;28;20518;-87
2022/01/18 08:07:13;;;;;;;4.22;1.40;;;;;;;-1.55;60.14;100782.28;5035439;28;20147;-86
2022/01/18 08:09:39;;;;;;;1.90;1.23;;;;;;;-1.37;59.06;100781.75;5034982;28;20040;-88
2022/01/18 08:12:06;;;;;;;2.58;1.15;;;;;;;-1.26;57.92;100774.94;5051471;28;20578;-85
2022/01/18 08:14:33;;;;;;;2.45;1.35;;;;;;;-1.13;57.73;100775.00;5053066;28;20396;-87
2022/01/18 08:17:04;;;;;;;3.75;1.27;;;;;;;-1.00;56.98;100785.84;5052424;28;20041;-86
2022/01/18 08:19:34;;;;;;;2.83;1.50;;;;;;;-0.86;56.54;100786.72;5052836;28;20392;-86
2022/01/18 08:22:00;;;;;;;3.42;1.35;;;;;;;-0.59;56.17;100790.28;5052210;28;20053;-86
2022/01/18 08:24:26;;;;;;;2.05;1.02;;;;;;;-0.41;55.70;100787.00;5052765;28;20086;-86
2022/01/18 08:26:52;;;;;;;2.25;1.65;;;;;;;-0.25;55.65;100783.91;5051830;28;20040;-87
2022/01/18 08:29:18;;;;;;;2.72;1.23;;;;;;;-0.02;54.97;100794.25;5017226;28;20457;-86
2022/01/18 08:31:44;;;;;;;2.25;1.15;;;;;;;0.15;53.74;100802.75;5051992;28;20051;-86
2022/01/18 08:34:10;;;;;;;1.90;1.15;;;;;;;0.26;53.35;100800.28;5034644;28;20033;-86
2022/01/18 08:36:36;;;;;;;2.53;1.10;;;;;;;0.15;53.35;100809.00;5033987;28;20037;-87
2022/01/18 08:39:03;;;;;;;2.20;1.35;;;;;;;-0.10;54.22;100819.59;5051901;28;20047;-87
2022/01/18 08:41:29;;;;;;;2.08;0.82;;;;;;;-0.18;53.80;100824.34;5051770;28;20137;-87
2022/01/18 08:43:55;;;;;;;1.65;1.10;;;;;;;-0.46;54.12;100836.13;5051660;28;20128;-87
2022/01/18 08:46:21;;;;;;;1.63;1.02;;;;;;;-1.23;55.55;100831.06;5051693;28;20047;-86
2022/01/18 08:48:47;;;;;;;1.63;1.00;;;;;;;-2.12;56.16;100847.84;5051312;28;20041;-86
2022/01/18 08:51:12;;;;;;;1.85;0.90;;;;;;;-2.82;57.81;100859.28;5051856;28;20100;-87
2022/01/18 08:53:39;;;;;;;1.48;0.90;;;;;;;-3.34;59.06;100871.00;5067246;28;20040;-88
2022/01/18 08:56:05;;;;;;;1.40;0.80;;;;;;;-3.73;59.74;100881.16;5018118;28;20041;-87
2022/01/18 08:58:32;;;;;;;2.13;0.90;;;;;;;-4.14;60.61;100894.91;5034217;28;20052;-87
2022/01/18 09:00:58;;;;;;;2.47;0.73;;;;;;;-4.47;62.15;100910.38;5033795;28;20491;-87
2022/01/18 09:03:24;;;;;;;2.88;1.25;;;;;;;-4.78;62.94;100902.34;5038659;28;20060;-87
2022/01/18 09:05:51;;;;;;;1.33;0.93;;;;;;;-5.07;63.59;100918.16;5047302;28;20052;-87
2022/01/18 09:08:22;;;;;;;3.08;1.30;;;;;;;-5.29;64.18;100923.25;5032470;28;20516;-86
2022/01/18 09:10:48;;;;;;;1.77;0.93;;;;;;;-5.47;65.44;100919.94;5032171;28;20056;-87
2022/01/18 09:13:15;;;;;;;3.45;0.88;;;;;;;-5.59;66.26;100913.28;5049431;28;20037;-86
2022/01/18 09:15:42;;;;;;;1.75;1.00;;;;;;;-5.70;66.93;100937.69;5032329;28;20091;-86
2022/01/18 09:18:07;;;;;;;1.30;0.80;;;;;;;-5.77;67.49;100935.69;5033653;28;20124;-85
2022/01/18 09:20:33;;;;;;;1.27;0.95;;;;;;;-5.85;68.46;100926.84;5032778;28;20143;-85
2022/01/18 09:22:59;;;;;;;1.33;0.80;;;;;;;-5.87;68.17;100936.88;5014617;28;20062;-86
2022/01/18 09:25:27;;;;;;;0.90;0.70;;;;;;;-5.88;69.33;100930.69;5006603;28;20492;-86
2022/01/18 09:27:53;;;;;;;1.23;0.90;;;;;;;-5.90;69.94;100930.06;5012063;28;20049;-86
2022/01/18 09:30:20;;;;;;;1.38;0.77;;;;;;;-5.90;69.89;100943.41;5011904;28;20088;-86
2022/01/18 09:32:47;;;;;;;1.17;0.85;;;;;;;-5.90;70.26;100948.78;5010641;28;20049;-86
2022/01/18 09:35:14;;;;;;;2.47;0.75;;;;;;;-5.88;70.34;100957.41;5010842;28;20042;-87
2022/01/18 09:37:40;;;;;;;1.92;0.90;;;;;;;-5.88;70.14;100946.72;5025923;28;20459;-86
2022/01/18 09:40:06;;;;;;;2.40;0.80;;;;;;;-5.86;70.50;100955.41;5005565;28;20089;-86
2022/01/18 09:42:37;;;;;;;1.70;0.75;;;;;;;-5.83;70.92;100965.75;5010565;28;20041;-85
2022/01/18 09:45:09;;;;;;;1.73;0.85;;;;;;;-5.82;70.40;100966.59;5011160;28;20099;-87
2022/01/18 09:47:36;;;;;;;0.90;0.60;;;;;;;-5.84;70.52;100977.44;5011754;28;20041;-86
2022/01/18 09:50:03;;;;;;;2.55;1.00;;;;;;;-5.81;70.46;100984.28;5011109;28;20045;-85
2022/01/18 09:52:29;;;;;;;1.77;0.90;;;;;;;-5.81;70.62;100979.78;5011813;28;20041;-86
2022/01/18 09:54:55;;;;;;;1.70;0.82;;;;;;;-5.82;71.28;100986.13;5043402;28;20467;-86
2022/01/18 09:57:20;;;;;;;3.60;1.05;;;;;;;-5.78;71.08;100990.13;5011403;28;20125;-85
2022/01/18 09:59:46;;;;;;;0.98;0.88;;;;;;;-5.76;71.24;100998.81;5026587;28;20092;-85
2022/01/18 10:02:11;;;;;;;1.35;0.65;;;;;;;-5.74;70.82;100990.63;5011138;28;20128;-85
2022/01/18 10:04:42;;;;;;;1.48;0.70;;;;;;;-5.73;70.92;100994.13;5011537;28;20065;-85
2022/01/18 10:07:08;;;;;;;1.77;0.90;;;;;;;-5.73;71.22;100997.66;5026477;28;20038;-86
2022/01/18 10:09:34;;;;;;;1.42;1.20;;;;;;;-5.73;71.17;100992.31;5011666;28;20053;-84
2022/01/18 10:12:01;;;;;;;1.13;0.80;;;;;;;-5.71;71.68;101001.03;5012127;28;20041;-86
2022/01/18 10:14:32;;;;;;;4.18;1.30;;;;;;;-5.69;71.83;101003.53;5038428;28;20038;-90
2022/01/18 10:16:58;;;;;;;2.50;1.05;;;;;;;-5.69;71.55;101003.53;5002642;28;20567;-88
2022/01/18 10:19:51;;;;;;;1.63;0.80;;;;;;;-5.68;71.73;101005.19;5028714;28;20033;-87
2022/01/18 10:22:22;;;;;;;3.28;1.00;;;;;;;-5.67;71.13;101020.22;5038929;28;20053;-85
2022/01/18 10:24:48;;;;;;;1.85;1.00;;;;;;;-5.67;71.53;101010.38;5026097;28;20116;-82
2022/01/18 10:27:14;;;;;;;0.70;0.70;;;;;;;-5.67;71.67;101009.53;5010490;28;20488;-82
2022/01/18 10:29:49;;;;;;;1.45;0.80;;;;;;;-5.66;71.84;101009.38;5026038;28;20061;-82
2022/01/18 10:32:29;;;;;;;0.85;0.68;;;;;;;-5.63;71.65;101018.88;5010787;28;20068;-82
2022/01/18 10:37:28;;;;;;;5.28;0.73;;;;;;;-5.61;71.34;101019.53;5023543;28;20105;-83
2022/01/18 10:39:59;;;;;;;0.85;0.50;;;;;;;-5.59;71.70;101025.56;5010456;28;20044;-83
2022/01/18 10:42:33;;;;;;;0.85;0.60;;;;;;;-5.56;71.33;101038.59;5009985;28;20042;-83
2022/01/18 10:45:10;;;;;;;0.63;0.63;;;;;;;-5.51;71.69;101033.59;5009485;28;20045;-83
2022/01/18 10:47:37;;;;;;;1.17;0.77;;;;;;;-5.51;71.87;101025.56;5010775;28;20132;-83
2022/01/18 10:50:12;;;;;;;0.75;0.70;;;;;;;-5.48;71.79;101030.59;5010778;28;20057;-83
2022/01/18 10:52:38;;;;;;;4.88;1.38;;;;;;;-5.47;71.50;101027.75;5027975;28;20061;-83
2022/01/18 10:55:04;;;;;;;2.58;1.00;;;;;;;-5.49;71.26;101036.94;5029736;28;20491;-83
2022/01/18 10:57:33;;;;;;;0.65;0.60;;;;;;;-5.51;71.90;101038.94;5014311;28;20136;-83
2022/01/18 11:00:06;;;;;;;1.10;0.60;;;;;;;-5.50;71.49;101032.59;5014671;28;20128;-84
2022/01/18 11:02:34;;;;;;;1.85;0.60;;;;;;;-5.49;71.66;101042.28;5008358;28;20053;-84
2022/01/18 11:05:00;;;;;;;1.25;0.70;;;;;;;-5.48;72.02;101044.78;5014000;28;20400;-83
2022/01/18 11:07:28;;;;;;;1.63;0.80;;;;;;;-5.47;72.16;101049.13;5008304;28;20655;-83
2022/01/18 11:09:55;;;;;;;0.75;0.60;;;;;;;-5.46;71.41;101039.28;5014096;28;20057;-84
2022/01/18 11:12:24;;;;;;;0.60;0.57;;;;;;;-5.48;71.62;101047.47;5028816;28;20041;-84
2022/01/18 11:15:00;;;;;;;8.57;1.00;;;;;;;-5.48;71.15;101049.31;5010977;28;20034;-82
2022/01/18 11:17:27;;;;;;;0.47;0.45;;;;;;;-5.48;71.58;101047.47;5014012;28;20053;-83
2022/01/18 11:19:55;;;;;;;4.53;1.40;;;;;;;-5.47;71.60;101050.97;5029047;28;20050;-84
2022/01/18 11:22:24;;;;;;;0.82;0.60;;;;;;;-5.50;71.39;101051.31;5012162;28;20116;-84
2022/01/18 11:24:50;;;;;;;1.42;0.63;;;;;;;-5.49;71.73;101052.97;5012283;28;20045;-84
2022/01/18 11:27:18;;;;;;;2.03;0.90;;;;;;;-5.51;71.86;101050.47;5030244;28;20086;-83
2022/01/18 11:29:47;;;;;;;1.85;0.70;;;;;;;-5.52;71.81;101056.00;5013913;28;20037;-84
2022/01/18 11:32:14;;;;;;;0.93;0.65;;;;;;;-5.51;72.19;101063.00;5013734;28;20132;-83
2022/01/18 11:35:09;;;;;;;1.52;0.88;;;;;;;-5.52;71.86;101056.00;5026325;28;20132;-82
2022/01/18 11:37:37;;;;;;;1.95;0.93;;;;;;;-5.54;71.82;101058.84;5023251;28;20048;-82
2022/01/18 11:40:06;;;;;;;1.15;0.93;;;;;;;-5.54;71.87;101066.03;5009339;28;20033;-82
2022/01/18 11:42:50;;;;;;;4.63;1.20;;;;;;;-5.55;72.23;101059.00;5011659;28;20041;-81
2022/01/18 11:45:25;;;;;;;2.63;1.10;;;;;;;-5.57;72.01;101079.69;5008809;28;20119;-81
2022/01/18 11:48:04;;;;;;;3.70;1.08;;;;;;;-5.59;71.83;101079.88;5022916;28;20046;-84
2022/01/18 11:50:32;;;;;;;1.13;0.70;;;;;;;-5.60;72.03;101082.69;5008190;28;20052;-78
2022/01/18 11:53:26;;;;;;;1.55;0.93;;;;;;;-5.61;71.98;101078.34;5009785;28;20041;-82
2022/01/18 11:55:53;;;;;;;0.88;0.80;;;;;;;-5.62;71.96;101088.22;5008340;28;20038;-79
2022/01/18 11:58:19;;;;;;;3.72;0.95;;;;;;;-5.64;71.48;101079.53;5011603;28;20042;-79
2022/01/18 12:00:55;;;;;;;2.13;0.90;;;;;;;-5.65;71.93;101079.69;5007370;28;20104;-81
2022/01/18 12:03:25;;;;;;;2.45;0.90;;;;;;;-5.67;71.87;101084.38;5021273;28;20065;-82
2022/01/18 12:05:50;;;;;;;0.90;0.80;;;;;;;-5.67;72.40;101087.06;5007362;28;20145;-81
2022/01/18 12:08:43;;;;;;;1.40;0.73;;;;;;;-5.70;72.75;101084.72;4991195;28;20057;-81
2022/01/18 12:11:11;;;;;;;2.47;1.00;;;;;;;-5.70;72.58;101092.72;5008682;28;20044;-81
2022/01/18 12:13:42;;;;;;;3.22;1.20;;;;;;;-5.71;72.77;101091.06;5008213;28;20040;-80
2022/01/18 12:16:18;;;;;;;2.33;1.23;;;;;;;-5.72;72.70;101094.72;5022867;28;20056;-81
2022/01/18 12:18:52;;;;;;;1.88;1.15;;;;;;;-5.76;72.80;101092.38;5021901;28;20060;-80
2022/01/18 12:21:22;;;;;;;2.35;1.50;;;;;;;-5.79;72.78;101094.53;5007660;28;21761;-80
2022/01/18 12:23:48;;;;;;;2.65;1.23;;;;;;;-5.83;72.85;101088.69;5044670;28;20067;-80
2022/01/18 12:26:27;;;;;;;2.75;1.25;;;;;;;-5.86;73.21;101090.84;5050058;28;20048;-79
2022/01/18 12:34:49;;;;;;;3.30;1.55;;;;;;;-5.94;73.26;101105.03;5049575;28;20488;-81
2022/01/18 12:37:19;;;;;;;2.63;1.98;;;;;;;-5.95;73.57;101110.56;5052485;28;20037;-83
2022/01/18 12:45:05;;;;;;;2.13;1.00;;;;;;;-6.08;74.07;101121.69;5053126;28;20067;-83
2022/01/18 12:47:36;;;;;;;1.70;1.13;;;;;;;-6.13;73.44;101116.84;5035727;28;20103;-83
2022/01/18 12:50:07;;;;;;;0.80;0.80;;;;;;;-6.15;73.69;101124.19;5045941;28;20033;-82
2022/01/18 12:52:53;;;;;;;9.80;1.33;;;;;;;-6.20;74.04;101118.50;5043721;28;20048;-79